KTCL/TCL METAR and TAF weather

Enter ICAO airport designator
Station Type Date Time Source
KTCL METAR 2020/03/31 05:53 UTC NOAA

KTCL 310553Z AUTO 03004KT 10SM OVC060 17/09 A2995 RMK AO2 RAB07E31 SLP141 P0000 60000 T01670089 10200 20167 402500133 56017


Station Type Date Time Source
KTCL Decoded METAR 2020/03/31 05:53 UTC NOAA

TUSCALOOSA REGIONAL AIRPORT, AL, United States (KTCL) 33-13N 087-37W
Mar 31, 2020 - 01:53 AM EDT / 2020.03.31 0553 UTC
Wind: from the NNE (030 degrees) at 5 MPH (4 KT):0
Visibility: 10 mile(s):0
Sky conditions: overcast
Precipitation last hour: A trace
Temperature: 62.1 F (16.7 C)
Dew Point: 48.0 F (8.9 C)
Relative Humidity: 59%
Pressure (altimeter): 29.95 in. Hg (1014 hPa)
Pressure tendency: 0.05 inches (1.7 hPa) lower than three hours ago
ob: KTCL 310553Z AUTO 03004KT 10SM OVC060 17/09 A2995 RMK AO2 RAB07E31 SLP141 P0000 60000 T01670089 10200 20167 402500133 56017
cycle: 6

Station Type Date Time Source
KTCL TAF 2020/03/31 06:34 UTC NOAA

TAF KTCL 310532Z 3106/0106 VRB03KT P6SM SHRA OVC070
FM311300 06007KT 3SM SHRA BR OVC015 PROB30 3115/3118 4SM TSRA BR OVC009CB
FM311800 32008KT P6SM BKN018 PROB30 3118/3119 4SM SHRA BR OVC009
FM312000 32011G22KT P6SM OVC023
FM010300 34006KT P6SM BKN200

Example: see airport list